Time;durP1;ratioP1;P1;durP2;ratioP2;P2;SDS_P1;SDS_P2;PMS_P1;PMS_P2;Temp;Humidity;BMP_temperature;BMP_pressure;BME280_temperature;BME280_humidity;BME280_pressure;Samples;Min_cycle;Max_cycle;Signal;HPM_P1;HPM_P2
2021/08/13 00:00:42;;;;;;;;;14.75;14.75;;;;;32.90;32.68;101316.34;144163;595;131020;-71
2021/08/13 00:03:17;;;;;;;;;17.00;15.50;;;;;32.87;32.82;101309.41;144164;596;132008;-71
2021/08/13 00:05:52;;;;;;;;;16.00;15.50;;;;;32.89;32.46;101307.38;144147;586;132913;-73
2021/08/13 00:08:26;;;;;;;;;14.75;14.00;;;;;32.85;32.54;101308.75;144165;575;132012;-70
2021/08/13 00:11:00;;;;;;;;;13.25;13.00;;;;;32.70;32.60;101305.91;144157;624;132008;-73
2021/08/13 00:13:34;;;;;;;;;12.00;12.00;;;;;32.77;32.61;101305.22;144164;603;131018;-72
2021/08/13 00:16:08;;;;;;;;;17.25;16.25;;;;;32.77;32.92;101302.50;144165;605;132008;-70
2021/08/13 00:18:42;;;;;;;;;14.25;14.00;;;;;32.64;32.84;101306.56;144166;574;132008;-70
2021/08/13 00:21:16;;;;;;;;;17.50;17.50;;;;;32.63;33.09;101298.56;144164;589;131913;-74
2021/08/13 00:23:50;;;;;;;;;15.50;15.50;;;;;32.60;32.85;101294.34;144176;678;132012;-71
2021/08/13 00:26:24;;;;;;;;;14.75;14.75;;;;;32.60;32.78;101304.37;144167;591;131912;-72
2021/08/13 00:28:58;;;;;;;;;15.00;14.00;;;;;32.62;32.58;101302.34;144161;585;132010;-72
2021/08/13 00:31:32;;;;;;;;;15.25;15.25;;;;;32.63;32.75;101307.59;144144;588;132008;-72
2021/08/13 00:34:06;;;;;;;;;16.75;15.75;;;;;32.67;32.90;101310.78;144158;569;132010;-72
2021/08/13 00:36:39;;;;;;;;;17.50;16.50;;;;;32.58;33.16;101303.72;144159;597;132008;-71
2021/08/13 00:39:13;;;;;;;;;16.50;16.50;;;;;32.59;33.38;101308.97;144160;611;132012;-74
2021/08/13 00:41:47;;;;;;;;;13.50;13.50;;;;;32.52;33.62;101305.22;144162;607;132020;-69
2021/08/13 00:44:21;;;;;;;;;13.50;13.50;;;;;32.53;33.57;101299.66;144161;638;132013;-74
2021/08/13 00:46:55;;;;;;;;;12.00;12.00;;;;;32.54;33.76;101308.63;144157;645;132008;-73
2021/08/13 00:49:29;;;;;;;;;16.75;15.50;;;;;32.49;33.36;101308.31;144175;639;131016;-70
2021/08/13 00:52:03;;;;;;;;;13.75;12.75;;;;;32.51;33.35;101311.72;144164;595;131010;-71
2021/08/13 00:54:37;;;;;;;;;13.50;13.50;;;;;32.55;33.49;101316.59;144156;628;132012;-71
2021/08/13 00:57:11;;;;;;;;;14.25;14.25;;;;;32.59;33.19;101318.97;144149;628;131912;-71
2021/08/13 00:59:45;;;;;;;;;15.00;14.50;;;;;32.62;33.31;101313.22;144160;725;132010;-71
2021/08/13 01:02:19;;;;;;;;;13.00;12.50;;;;;32.71;32.51;101317.59;144163;633;131020;-71
2021/08/13 01:04:53;;;;;;;;;14.75;14.00;;;;;32.68;32.22;101307.06;144163;576;132012;-70
2021/08/13 01:07:28;;;;;;;;;16.00;16.00;;;;;32.66;32.27;101298.25;144156;581;132010;-72
2021/08/13 01:10:11;;;;;;;;;14.00;12.75;;;;;32.64;32.20;101295.69;144165;609;132010;-70
2021/08/13 01:13:11;;;;;;;;;15.00;13.50;;;;;32.63;32.34;101298.56;144158;602;132009;-71
2021/08/13 01:15:50;;;;;;;;;13.00;13.00;;;;;32.61;31.86;101297.91;144170;563;132012;-74
2021/08/13 01:18:35;;;;;;;;;16.00;12.50;;;;;32.57;31.84;101300.12;144166;628;131020;-71
2021/08/13 01:21:58;;;;;;;;;13.50;13.50;;;;;32.55;32.01;101303.03;144160;651;132013;-73
2021/08/13 01:24:36;;;;;;;;;13.00;12.75;;;;;32.63;31.86;101309.44;144140;676;132008;-71
2021/08/13 01:27:17;;;;;;;;;16.50;14.25;;;;;32.66;31.80;101304.53;144157;601;133012;-71
2021/08/13 01:30:11;;;;;;;;;11.25;11.25;;;;;32.67;31.67;101300.78;144162;613;131010;-72
2021/08/13 01:33:01;;;;;;;;;13.25;13.25;;;;;32.65;31.49;101297.38;144155;621;132029;-70
2021/08/13 01:35:48;;;;;;;;;11.75;11.50;;;;;32.68;31.61;101298.91;144156;580;132010;-72
2021/08/13 01:38:28;;;;;;;;;12.50;12.25;;;;;32.66;31.90;101299.09;144158;633;132010;-71
2021/08/13 01:41:09;;;;;;;;;12.25;12.25;;;;;32.67;31.58;101299.91;144166;643;131025;-71
2021/08/13 01:43:45;;;;;;;;;12.00;11.50;;;;;32.69;32.04;101300.63;144175;603;132021;-73
2021/08/13 01:46:20;;;;;;;;;14.50;12.25;;;;;32.63;31.26;101306.72;144163;605;132008;-72
2021/08/13 01:48:55;;;;;;;;;16.75;15.25;;;;;32.59;31.66;101303.53;144162;599;132010;-71
2021/08/13 01:51:30;;;;;;;;;13.25;11.75;;;;;32.49;31.81;101302.88;144142;627;132008;-71
2021/08/13 01:54:06;;;;;;;;;14.00;14.00;;;;;32.52;31.94;101306.09;144162;563;132010;-72
2021/08/13 01:56:40;;;;;;;;;11.25;11.25;;;;;32.47;31.98;101308.47;144165;585;131020;-69
2021/08/13 01:59:15;;;;;;;;;12.50;12.50;;;;;32.50;32.28;101304.56;144163;569;132010;-70
2021/08/13 02:01:50;;;;;;;;;15.25;14.00;;;;;32.56;32.11;101310.16;144163;646;131020;-70
2021/08/13 02:04:24;;;;;;;;;13.50;12.75;;;;;32.63;32.41;101312.16;144161;589;132013;-68
2021/08/13 02:06:59;;;;;;;;;13.25;13.00;;;;;32.64;32.47;101303.84;144155;586;132010;-68
2021/08/13 02:09:34;;;;;;;;;16.00;14.50;;;;;32.72;32.11;101303.88;144168;615;132012;-69
2021/08/13 02:12:08;;;;;;;;;14.50;13.25;;;;;32.66;31.96;101303.69;144165;565;131021;-67
2021/08/13 02:14:43;;;;;;;;;12.00;11.50;;;;;32.59;32.14;101313.53;144161;623;132010;-68
2021/08/13 02:17:23;;;;;;;;;13.50;12.25;;;;;32.58;32.01;101307.25;144147;588;131020;-69
2021/08/13 02:20:07;;;;;;;;;12.00;12.00;;;;;32.55;32.07;101307.63;144156;680;132010;-70
2021/08/13 02:22:41;;;;;;;;;14.75;12.75;;;;;32.59;32.16;101310.81;144163;566;131024;-68
2021/08/13 02:25:15;;;;;;;;;13.50;13.50;;;;;32.63;32.23;101321.19;144157;680;132011;-69
2021/08/13 02:27:50;;;;;;;;;14.50;14.00;;;;;32.71;32.59;101328.47;144159;577;132008;-68
2021/08/13 02:30:24;;;;;;;;;14.50;14.25;;;;;32.78;32.63;101323.19;144164;611;132012;-69
2021/08/13 02:32:58;;;;;;;;;10.75;10.75;;;;;32.76;32.97;101320.66;144163;569;131021;-71
2021/08/13 02:35:35;;;;;;;;;13.50;13.50;;;;;32.67;33.02;101322.53;144173;618;132012;-70
2021/08/13 02:38:28;;;;;;;;;13.75;12.75;;;;;32.77;32.57;101329.69;144157;607;132008;-69
2021/08/13 02:41:10;;;;;;;;;12.75;11.50;;;;;32.79;32.55;101328.47;144163;622;132011;-70
2021/08/13 02:43:56;;;;;;;;;16.25;16.25;;;;;32.82;32.82;101329.97;144141;569;132008;-70
2021/08/13 02:46:36;;;;;;;;;16.00;14.50;;;;;32.80;32.95;101330.16;144156;629;132010;-71
2021/08/13 02:49:13;;;;;;;;;14.25;14.25;;;;;32.80;33.16;101332.03;144156;569;132008;-70
2021/08/13 02:51:49;;;;;;;;;16.75;15.00;;;;;32.76;33.60;101328.81;144160;630;132012;-70
2021/08/13 02:54:28;;;;;;;;;15.25;15.25;;;;;32.70;33.55;101332.25;144159;607;132008;-70
2021/08/13 02:57:04;;;;;;;;;13.50;13.50;;;;;32.66;33.71;101336.31;144161;625;132010;-69
2021/08/13 02:59:43;;;;;;;;;15.75;15.75;;;;;32.59;34.21;101335.28;144157;570;131912;-69
2021/08/13 03:02:18;;;;;;;;;17.00;17.00;;;;;32.53;34.23;101332.25;144174;601;132010;-70
2021/08/13 03:04:54;;;;;;;;;18.50;16.50;;;;;32.61;34.21;101341.41;144166;572;131021;-71
2021/08/13 03:07:31;;;;;;;;;16.25;15.50;;;;;32.59;34.49;101338.87;144155;565;133012;-70
2021/08/13 03:10:05;;;;;;;;;18.00;16.00;;;;;32.58;34.85;101337.16;144147;576;131021;-69
2021/08/13 03:12:43;;;;;;;;;22.00;18.25;;;;;32.53;35.32;101336.81;144163;592;132008;-69
2021/08/13 03:15:20;;;;;;;;;18.75;18.75;;;;;32.37;35.84;101340.44;144157;608;132010;-72
2021/08/13 03:17:54;;;;;;;;;17.75;17.75;;;;;32.51;35.87;101342.44;144167;571;131017;-70
2021/08/13 03:20:28;;;;;;;;;18.50;18.50;;;;;32.48;36.50;101353.66;144162;610;131020;-69
2021/08/13 03:23:03;;;;;;;;;18.25;17.25;;;;;32.40;36.26;101354.50;144161;563;132012;-71
2021/08/13 03:25:38;;;;;;;;;18.00;17.75;;;;;32.37;36.02;101356.72;144158;566;132008;-72
2021/08/13 03:28:12;;;;;;;;;17.25;17.25;;;;;32.30;36.73;101369.28;144174;580;131018;-70
2021/08/13 03:30:48;;;;;;;;;17.25;16.75;;;;;32.28;36.35;101360.47;144156;580;132008;-72
2021/08/13 03:33:23;;;;;;;;;19.50;17.50;;;;;32.25;36.00;101369.81;144163;582;132013;-70
2021/08/13 03:35:57;;;;;;;;;17.00;17.00;;;;;32.20;35.58;101367.56;144146;682;131020;-70
2021/08/13 03:38:31;;;;;;;;;18.00;16.50;;;;;32.13;35.40;101373.84;144160;601;132012;-70
2021/08/13 03:41:05;;;;;;;;;15.00;15.00;;;;;32.14;35.30;101387.25;144158;642;132010;-70
2021/08/13 03:43:39;;;;;;;;;15.50;14.75;;;;;32.05;35.27;101380.97;144167;564;131018;-71
2021/08/13 03:46:13;;;;;;;;;11.00;11.00;;;;;32.01;35.34;101384.19;144159;612;132008;-70
2021/08/13 03:48:47;;;;;;;;;13.75;13.75;;;;;32.06;35.32;101384.53;144163;563;132012;-69
2021/08/13 03:51:21;;;;;;;;;16.50;15.75;;;;;32.17;35.29;101380.66;144156;598;132010;-70
2021/08/13 03:53:55;;;;;;;;;15.00;14.50;;;;;32.22;34.74;101372.87;144175;629;132013;-70
2021/08/13 03:56:28;;;;;;;;;19.75;16.00;;;;;32.20;34.72;101383.03;144154;574;132010;-69
2021/08/13 03:59:02;;;;;;;;;16.00;14.25;;;;;32.19;34.79;101382.19;144161;605;132012;-71
2021/08/13 04:01:36;;;;;;;;;15.50;14.00;;;;;32.22;35.13;101372.87;144145;586;131021;-71
2021/08/13 04:04:10;;;;;;;;;17.25;16.00;;;;;32.22;35.05;101373.72;144159;569;132008;-70
2021/08/13 04:06:48;;;;;;;;;15.25;14.75;;;;;32.27;35.48;101375.06;144157;612;132010;-70
2021/08/13 04:09:21;;;;;;;;;15.25;15.00;;;;;32.35;35.26;101375.91;144160;594;131017;-70
2021/08/13 04:11:55;;;;;;;;;17.75;17.75;;;;;32.37;35.12;101381.19;144153;573;132010;-69
2021/08/13 04:14:29;;;;;;;;;20.75;18.50;;;;;32.31;35.10;101379.97;144164;564;131016;-72
2021/08/13 04:17:04;;;;;;;;;17.50;14.25;;;;;32.23;35.00;101379.97;144153;612;132010;-69
2021/08/13 04:19:37;;;;;;;;;13.50;12.75;;;;;32.23;34.89;101390.84;144177;586;132008;-71
2021/08/13 04:22:12;;;;;;;;;13.25;12.25;;;;;32.22;34.74;101391.88;144160;671;132008;-73
2021/08/13 04:24:45;;;;;;;;;16.00;14.50;;;;;32.22;34.73;101398.16;144162;576;132010;-71
2021/08/13 04:27:19;;;;;;;;;18.00;17.25;;;;;32.23;34.66;101394.44;144147;624;131020;-72
2021/08/13 04:29:56;;;;;;;;;15.00;15.00;;;;;32.26;34.67;101395.97;144162;716;132016;-71
2021/08/13 04:32:30;;;;;;;;;16.00;16.00;;;;;32.21;34.72;101399.16;144160;616;132008;-71
2021/08/13 04:35:04;;;;;;;;;17.75;17.25;;;;;32.27;34.46;101403.06;144157;611;132010;-72
2021/08/13 04:37:38;;;;;;;;;15.50;15.25;;;;;32.28;34.05;101403.94;144163;579;131020;-71
2021/08/13 04:40:13;;;;;;;;;16.00;16.00;;;;;32.33;34.45;101396.13;144159;581;131017;-71
2021/08/13 04:42:47;;;;;;;;;14.00;13.75;;;;;32.43;34.18;101404.09;144164;579;132912;-70
2021/08/13 04:45:20;;;;;;;;;13.75;13.75;;;;;32.52;33.82;101403.91;144173;617;132010;-72
2021/08/13 04:47:55;;;;;;;;;13.75;13.75;;;;;32.60;33.61;101403.03;144157;606;132008;-72
2021/08/13 04:50:29;;;;;;;;;17.25;17.25;;;;;32.68;34.07;101402.19;144157;576;132012;-71
2021/08/13 04:53:03;;;;;;;;;16.75;16.00;;;;;32.83;34.63;101408.66;144147;587;131913;-70
2021/08/13 04:55:36;;;;;;;;;16.25;14.75;;;;;33.02;34.77;101410.13;144159;648;131017;-71
2021/08/13 04:58:10;;;;;;;;;18.25;17.00;;;;;33.18;34.83;101405.69;144162;582;132029;-71
2021/08/13 05:00:47;;;;;;;;;13.25;13.25;;;;;33.38;33.69;101407.00;144156;697;132017;-71
2021/08/13 05:03:21;;;;;;;;;14.75;14.75;;;;;33.57;33.75;101411.16;144158;619;132008;-73
2021/08/13 05:05:54;;;;;;;;;14.25;13.75;;;;;33.72;33.18;101418.53;144164;644;132008;-72
2021/08/13 05:08:28;;;;;;;;;14.00;12.75;;;;;33.88;32.99;101412.19;144156;607;132010;-73
2021/08/13 05:11:02;;;;;;;;;12.25;12.25;;;;;33.99;32.61;101419.94;144174;611;132012;-72
2021/08/13 05:13:36;;;;;;;;;16.00;15.00;;;;;34.05;32.22;101426.53;144156;580;131912;-70
2021/08/13 05:16:11;;;;;;;;;15.75;13.00;;;;;34.12;32.72;101418.47;144154;624;132012;-71
2021/08/13 05:18:45;;;;;;;;;15.25;14.25;;;;;34.24;32.95;101420.59;144143;658;131913;-71
2021/08/13 05:21:19;;;;;;;;;15.25;13.75;;;;;34.36;32.73;101420.19;144162;573;131018;-70
2021/08/13 05:23:53;;;;;;;;;18.00;17.00;;;;;34.47;32.81;101425.19;144159;640;132020;-73
2021/08/13 05:26:27;;;;;;;;;16.50;16.50;;;;;34.60;32.30;101421.00;144155;623;133012;-71
2021/08/13 05:29:01;;;;;;;;;18.50;17.00;;;;;34.69;32.33;101422.63;144159;596;132008;-70
2021/08/13 05:31:35;;;;;;;;;13.75;13.75;;;;;34.80;32.01;101421.31;144161;690;133013;-71
2021/08/13 05:34:09;;;;;;;;;18.25;17.00;;;;;34.88;32.10;101408.47;144164;580;132008;-68
2021/08/13 05:36:42;;;;;;;;;17.25;16.00;;;;;34.95;32.21;101418.62;144171;583;132010;-70
2021/08/13 05:39:16;;;;;;;;;17.25;16.50;;;;;35.06;31.19;101413.56;144159;597;131021;-68
2021/08/13 05:41:50;;;;;;;;;14.00;13.50;;;;;35.12;31.00;101417.44;144155;706;133012;-68
2021/08/13 05:44:24;;;;;;;;;14.00;13.00;;;;;35.20;30.79;101422.78;144146;585;131912;-68
2021/08/13 05:46:58;;;;;;;;;18.00;17.75;;;;;35.26;31.19;101423.91;144157;585;132012;-69
2021/08/13 05:49:32;;;;;;;;;26.75;24.75;;;;;35.32;30.97;101422.31;144160;574;132008;-67
2021/08/13 05:52:06;;;;;;;;;26.25;22.25;;;;;35.46;31.03;101428.78;144156;564;132013;-67
2021/08/13 05:54:40;;;;;;;;;19.75;16.00;;;;;35.45;31.00;101427.97;144156;570;131913;-66
2021/08/13 05:57:14;;;;;;;;;18.75;18.00;;;;;35.65;30.22;101428.22;144161;664;132010;-68
2021/08/13 05:59:48;;;;;;;;;16.50;16.00;;;;;35.71;30.00;101430.16;144154;596;132011;-68
2021/08/13 06:02:22;;;;;;;;;25.75;22.25;;;;;35.82;29.64;101427.97;144172;746;133013;-67
2021/08/13 06:04:59;;;;;;;;;15.50;15.50;;;;;35.97;28.97;101434.25;144167;706;131010;-67
2021/08/13 06:07:33;;;;;;;;;15.75;15.75;;;;;35.98;28.69;101433.22;144160;599;132012;-67
2021/08/13 06:10:08;;;;;;;;;17.50;16.50;;;;;36.03;28.37;101438.09;144136;606;132010;-67
2021/08/13 06:12:42;;;;;;;;;16.25;16.25;;;;;35.79;28.98;101436.53;144159;570;132010;-68
2021/08/13 06:15:17;;;;;;;;;19.50;19.00;;;;;35.87;28.24;101434.56;144157;608;132010;-67
2021/08/13 06:17:51;;;;;;;;;15.75;15.75;;;;;35.90;28.34;101434.19;144159;624;132016;-67
2021/08/13 06:20:27;;;;;;;;;14.50;14.50;;;;;36.03;28.91;101443.56;144163;588;132008;-67
2021/08/13 06:23:01;;;;;;;;;18.25;17.75;;;;;36.08;28.87;101449.28;144156;569;132012;-67
2021/08/13 06:25:35;;;;;;;;;17.25;17.25;;;;;36.13;28.92;101444.09;144155;592;132010;-68
2021/08/13 06:28:09;;;;;;;;;19.00;18.00;;;;;36.23;27.94;101447.34;144170;618;132010;-67
2021/08/13 06:30:45;;;;;;;;;15.75;15.25;;;;;36.11;27.84;101440.69;144158;639;132008;-67
2021/08/13 06:33:19;;;;;;;;;20.50;19.00;;;;;35.98;27.86;101446.87;144161;677;132010;-67
2021/08/13 06:35:53;;;;;;;;;17.50;17.00;;;;;35.97;27.85;101447.09;144138;645;132010;-68
2021/08/13 06:38:26;;;;;;;;;17.00;15.75;;;;;36.24;28.05;101448.19;144155;577;132012;-67
2021/08/13 06:41:00;;;;;;;;;18.00;18.00;;;;;36.41;27.82;101451.53;144159;607;131912;-67
2021/08/13 06:43:37;;;;;;;;;20.75;20.50;;;;;36.25;28.40;101445.25;144165;666;132012;-68
2021/08/13 06:46:10;;;;;;;;;16.50;16.50;;;;;36.86;27.52;101454.00;144159;612;131912;-67
2021/08/13 06:48:44;;;;;;;;;17.75;17.75;;;;;37.04;27.10;101448.03;144159;569;133016;-67
2021/08/13 06:51:19;;;;;;;;;16.50;15.75;;;;;36.96;27.42;101450.91;144163;670;131995;-67
2021/08/13 06:53:53;;;;;;;;;18.75;17.00;;;;;36.78;27.48;101454.13;144175;608;132012;-67
2021/08/13 06:56:27;;;;;;;;;17.50;17.00;;;;;37.01;26.93;101454.75;144159;687;132008;-67
2021/08/13 06:59:01;;;;;;;;;15.75;15.75;;;;;37.16;26.81;101454.63;144160;571;131019;-67
2021/08/13 07:01:35;;;;;;;;;15.25;15.25;;;;;36.39;27.76;101464.56;144145;632;132008;-68
2021/08/13 07:04:09;;;;;;;;;18.50;18.50;;;;;36.07;28.27;101458.53;144158;604;131016;-67
2021/08/13 07:06:43;;;;;;;;;19.75;18.00;;;;;36.51;27.62;101462.97;144168;603;131021;-67
2021/08/13 07:09:17;;;;;;;;;16.50;16.50;;;;;36.61;28.05;101464.50;144157;649;132012;-67
2021/08/13 07:11:51;;;;;;;;;16.00;16.00;;;;;35.74;28.77;101461.69;144156;577;132008;-67
2021/08/13 07:14:25;;;;;;;;;17.00;16.00;;;;;36.66;27.92;101467.50;144163;569;131016;-67
2021/08/13 07:16:58;;;;;;;;;21.00;20.50;;;;;36.66;28.33;101462.03;144160;571;131913;-67
2021/08/13 07:19:32;;;;;;;;;15.75;15.75;;;;;35.17;30.11;101461.38;144175;582;132012;-67
2021/08/13 07:22:07;;;;;;;;;18.00;16.75;;;;;34.70;31.20;101470.66;144159;577;132913;-66
2021/08/13 07:24:41;;;;;;;;;20.50;20.50;;;;;34.89;31.05;101467.44;144164;582;131018;-67
2021/08/13 07:27:15;;;;;;;;;20.25;20.25;;;;;34.55;31.30;101476.91;144152;721;131912;-67
2021/08/13 07:29:49;;;;;;;;;29.50;28.50;;;;;35.49;30.67;101466.66;144163;577;131016;-67
2021/08/13 07:32:23;;;;;;;;;28.25;26.50;;;;;34.74;31.53;101472.00;144162;696;131912;-68
2021/08/13 07:34:57;;;;;;;;;17.50;17.50;;;;;34.40;32.37;101476.03;144161;595;132012;-68
2021/08/13 07:37:31;;;;;;;;;14.75;13.75;;;;;35.16;31.07;101469.72;144157;625;132009;-67
2021/08/13 07:40:05;;;;;;;;;14.75;13.50;;;;;34.53;31.80;101470.81;144163;713;132012;-67
2021/08/13 07:42:41;;;;;;;;;16.00;16.00;;;;;34.10;32.11;101475.03;144158;594;132008;-66
2021/08/13 07:45:16;;;;;;;;;17.00;17.00;;;;;33.85;33.02;101478.75;144174;560;132010;-67
2021/08/13 07:47:51;;;;;;;;;18.25;17.25;;;;;33.14;33.17;101475.91;144161;569;132008;-66
2021/08/13 07:50:25;;;;;;;;;15.00;15.00;;;;;33.40;33.56;101474.84;144156;581;132011;-66
2021/08/13 07:52:59;;;;;;;;;12.50;12.50;;;;;33.18;33.80;101479.12;144143;699;132008;-67
2021/08/13 07:55:33;;;;;;;;;16.25;16.25;;;;;34.66;32.24;101481.09;144157;628;132012;-68
2021/08/13 07:58:07;;;;;;;;;14.00;13.75;;;;;34.43;32.74;101488.44;144160;633;132008;-67
2021/08/13 08:00:41;;;;;;;;;15.50;15.50;;;;;33.63;34.00;101477.63;144156;607;132013;-66
2021/08/13 08:03:16;;;;;;;;;12.75;12.75;;;;;34.09;33.31;101485.06;144160;642;131020;-67
2021/08/13 08:05:50;;;;;;;;;19.25;17.50;;;;;34.08;33.56;101486.94;144158;590;132008;-66
2021/08/13 08:08:24;;;;;;;;;20.25;19.25;;;;;34.29;33.72;101484.59;144163;605;131020;-67
2021/08/13 08:10:58;;;;;;;;;19.00;16.75;;;;;34.10;33.98;101494.09;144172;749;132010;-67
2021/08/13 08:13:32;;;;;;;;;14.50;14.50;;;;;34.13;34.24;101493.72;144163;564;131913;-67
2021/08/13 08:16:05;;;;;;;;;15.75;14.25;;;;;34.81;33.20;101500.25;144164;574;132008;-67
2021/08/13 08:18:39;;;;;;;;;13.00;13.00;;;;;34.98;32.83;101500.09;144148;587;132008;-67
2021/08/13 08:21:13;;;;;;;;;11.00;11.00;;;;;35.67;31.08;101493.53;144160;614;131018;-67
2021/08/13 08:23:47;;;;;;;;;15.50;13.75;;;;;35.38;31.19;101498.00;144164;669;132008;-67
2021/08/13 08:26:21;;;;;;;;;13.50;13.25;;;;;35.74;31.32;101503.50;144161;589;132010;-67
2021/08/13 08:28:56;;;;;;;;;16.25;15.00;;;;;35.90;30.49;101494.28;144162;581;132913;-67
2021/08/13 08:31:30;;;;;;;;;15.25;15.25;;;;;35.29;31.61;101502.66;144167;633;132012;-67
2021/08/13 08:34:04;;;;;;;;;15.00;15.00;;;;;35.39;32.03;101496.94;144158;563;132008;-65
2021/08/13 08:36:38;;;;;;;;;18.50;16.75;;;;;35.47;31.43;101502.31;144175;586;132012;-67
2021/08/13 08:39:12;;;;;;;;;13.75;13.75;;;;;35.80;31.49;101490.13;144156;704;132008;-67
2021/08/13 08:41:48;;;;;;;;;11.00;11.00;;;;;36.11;31.15;101487.16;144160;628;132012;-67
2021/08/13 08:44:21;;;;;;;;;11.50;11.50;;;;;35.45;32.06;101493.47;144147;566;132008;-67
2021/08/13 08:46:56;;;;;;;;;11.25;11.25;;;;;35.86;30.85;101487.50;144162;637;132010;-67
2021/08/13 08:49:33;;;;;;;;;10.50;10.50;;;;;36.26;29.44;101489.81;144165;591;131020;-67
2021/08/13 08:52:07;;;;;;;;;14.25;14.25;;;;;35.76;30.71;101492.41;144161;597;132008;-67
2021/08/13 08:54:44;;;;;;;;;14.25;14.00;;;;;36.52;29.85;101493.88;144163;577;131020;-67
2021/08/13 08:57:29;;;;;;;;;12.75;12.50;;;;;35.77;31.54;101496.81;144161;639;132016;-67
2021/08/13 09:00:03;;;;;;;;;14.00;13.50;;;;;36.09;30.41;101492.81;144160;590;131913;-66
2021/08/13 09:02:38;;;;;;;;;10.75;9.75;;;;;36.31;30.22;101489.25;144171;565;132012;-67
2021/08/13 09:05:13;;;;;;;;;12.50;12.50;;;;;36.72;29.27;101494.91;144160;648;132008;-67
2021/08/13 09:07:47;;;;;;;;;12.50;12.50;;;;;36.07;31.19;101496.78;144162;584;132010;-67
2021/08/13 09:10:21;;;;;;;;;14.25;13.75;;;;;36.82;29.90;101491.03;144139;578;132010;-67
2021/08/13 09:12:57;;;;;;;;;15.25;14.75;;;;;35.82;31.64;101486.19;144160;680;132012;-66
2021/08/13 09:15:36;;;;;;;;;11.00;10.75;;;;;35.85;31.23;101494.00;144160;595;132010;-67
2021/08/13 09:18:27;;;;;;;;;16.50;14.50;;;;;34.90;34.86;101501.87;144161;633;131998;-68
2021/08/13 09:21:03;;;;;;;;;14.25;14.00;;;;;34.65;34.63;101497.63;144166;595;132009;-67
2021/08/13 09:23:40;;;;;;;;;15.00;15.00;;;;;34.63;34.41;101497.00;144165;602;131016;-67
2021/08/13 09:26:22;;;;;;;;;17.25;14.25;;;;;33.92;35.18;101492.50;144161;599;132008;-67
2021/08/13 09:29:05;;;;;;;;;13.50;11.50;;;;;33.73;35.42;101485.59;144175;571;131018;-68
2021/08/13 09:31:40;;;;;;;;;10.00;10.00;;;;;33.22;35.05;101486.75;144162;629;131020;-68
2021/08/13 09:34:17;;;;;;;;;6.75;6.75;;;;;33.97;32.56;101487.37;144164;625;132008;-68
2021/08/13 09:37:18;;;;;;;;;8.00;7.00;;;;;34.93;29.96;101489.75;144150;602;132017;-68
2021/08/13 09:39:58;;;;;;;;;9.25;8.00;;;;;36.81;26.50;101484.69;144163;569;132010;-68
2021/08/13 09:42:42;;;;;;;;;5.25;5.25;;;;;36.56;26.29;101481.53;144161;669;132009;-68
2021/08/13 09:45:16;;;;;;;;;8.50;8.50;;;;;35.56;27.51;101462.94;144158;664;132012;-67
2021/08/13 09:47:52;;;;;;;;;7.25;7.25;;;;;34.27;29.41;101482.06;144165;676;132008;-68
2021/08/13 09:50:41;;;;;;;;;7.50;5.25;;;;;34.19;28.16;101477.50;144165;599;132013;-68
2021/08/13 09:53:17;;;;;;;;;8.25;8.25;;;;;34.71;28.10;101472.38;144164;624;132008;-67
2021/08/13 09:55:51;;;;;;;;;7.75;7.25;;;;;34.72;28.11;101476.78;144172;630;132012;-69
2021/08/13 09:58:29;;;;;;;;;3.75;3.75;;;;;33.62;30.77;101472.38;144166;582;132008;-67
2021/08/13 10:01:03;;;;;;;;;5.50;5.50;;;;;34.79;28.83;101466.84;144166;632;131029;-67
2021/08/13 10:03:55;;;;;;;;;9.00;9.00;;;;;33.77;29.81;101476.06;144150;602;131043;-68
2021/08/13 10:06:34;;;;;;;;;9.75;9.75;;;;;33.98;30.81;101463.69;144165;628;132012;-67
2021/08/13 10:09:09;;;;;;;;;9.50;9.50;;;;;34.47;29.39;101479.72;144157;631;132008;-68
2021/08/13 10:11:43;;;;;;;;;8.00;8.00;;;;;34.74;29.14;101478.28;144161;633;131018;-68
2021/08/13 10:14:35;;;;;;;;;7.00;7.00;;;;;33.84;32.00;101465.31;144164;626;131020;-68
2021/08/13 10:17:13;;;;;;;;;11.00;10.75;;;;;34.17;31.08;101470.53;144156;564;132034;-68
2021/08/13 10:19:52;;;;;;;;;8.00;8.00;;;;;34.90;30.21;101474.59;144162;637;132008;-68
2021/08/13 10:22:26;;;;;;;;;10.00;9.50;;;;;34.29;31.17;101479.16;144172;598;132010;-67
2021/08/13 10:25:01;;;;;;;;;11.00;10.50;;;;;34.18;32.67;101483.97;144162;587;131020;-68
2021/08/13 10:27:36;;;;;;;;;9.00;9.00;;;;;34.75;31.29;101476.44;144165;576;132010;-68
2021/08/13 10:30:10;;;;;;;;;10.00;10.00;;;;;34.14;31.48;101482.66;144147;641;132008;-68
2021/08/13 10:32:45;;;;;;;;;11.00;10.50;;;;;34.50;31.26;101482.09;144164;627;131017;-69
2021/08/13 10:35:19;;;;;;;;;8.50;8.50;;;;;34.89;29.99;101494.72;144161;607;132008;-68
2021/08/13 10:37:53;;;;;;;;;8.00;8.00;;;;;34.58;31.53;101484.75;144163;620;132012;-68
2021/08/13 10:40:28;;;;;;;;;11.75;11.50;;;;;34.49;32.70;101480.41;144162;621;131021;-67
2021/08/13 10:43:03;;;;;;;;;9.50;9.50;;;;;34.35;32.55;101483.91;144154;591;132012;-68
2021/08/13 10:45:40;;;;;;;;;9.50;9.50;;;;;35.12;29.86;101480.19;144160;683;131912;-68
2021/08/13 10:48:27;;;;;;;;;11.50;11.00;;;;;36.63;27.42;101465.16;144166;582;132012;-68
2021/08/13 10:51:02;;;;;;;;;10.00;10.00;;;;;37.05;27.11;101464.22;144156;595;132008;-68
2021/08/13 10:53:38;;;;;;;;;11.75;11.75;;;;;34.91;30.77;101469.97;144160;590;132010;-68
2021/08/13 10:56:12;;;;;;;;;9.75;9.25;;;;;35.02;32.18;101475.00;144138;594;132020;-68
2021/08/13 10:58:48;;;;;;;;;10.00;10.00;;;;;34.48;33.22;101470.50;144160;660;132010;-67
2021/08/13 11:01:24;;;;;;;;;10.50;10.50;;;;;34.00;33.55;101476.09;144162;603;131021;-68
2021/08/13 11:04:19;;;;;;;;;9.25;8.50;;;;;33.75;33.48;101464.47;144160;609;131018;-68
2021/08/13 11:06:53;;;;;;;;;10.75;10.75;;;;;34.21;31.90;101474.59;144153;658;132010;-68
2021/08/13 11:09:45;;;;;;;;;9.75;9.75;;;;;34.63;31.05;101469.72;144163;762;132025;-67
2021/08/13 11:12:19;;;;;;;;;8.00;8.00;;;;;35.46;29.95;101464.28;144163;619;132008;-68
2021/08/13 11:14:55;;;;;;;;;11.25;11.00;;;;;34.64;32.13;101476.84;144171;594;132010;-68
2021/08/13 11:17:46;;;;;;;;;9.00;9.00;;;;;34.43;31.69;101470.22;144162;585;131913;-68
2021/08/13 11:20:20;;;;;;;;;10.50;10.50;;;;;34.27;31.88;101464.84;144158;601;132012;-68
2021/08/13 11:23:07;;;;;;;;;10.75;10.75;;;;;34.20;33.08;101465.59;144143;599;132008;-68
2021/08/13 11:25:54;;;;;;;;;8.75;8.75;;;;;35.15;30.93;101468.88;144153;576;132012;-68
2021/08/13 11:28:30;;;;;;;;;8.50;8.50;;;;;34.71;31.18;101461.47;144163;580;131020;-69
2021/08/13 11:31:04;;;;;;;;;9.50;9.00;;;;;34.37;31.07;101468.22;144163;565;132012;-69
2021/08/13 11:33:40;;;;;;;;;8.00;8.00;;;;;34.74;30.09;101447.47;144163;579;131021;-69
2021/08/13 11:36:55;;;;;;;;;9.75;9.75;;;;;34.45;30.90;101465.44;144166;628;131016;-69
2021/08/13 11:39:39;;;;;;;;;9.00;9.00;;;;;34.70;30.24;101457.03;144156;617;132010;-69
2021/08/13 11:42:14;;;;;;;;;4.00;4.00;;;;;34.72;30.94;101450.37;144172;666;132012;-68
2021/08/13 11:44:52;;;;;;;;;9.00;9.00;;;;;35.18;29.51;101443.94;144158;629;132008;-68